createdAt,value
2018-09-04T00:01:23.103Z,100.00
2018-09-04T00:03:52.902Z,100.00
2018-09-04T00:06:23.443Z,100.00
2018-09-04T00:08:53.092Z,100.00
2018-09-04T00:11:22.926Z,100.00
2018-09-04T00:13:53.147Z,100.00
2018-09-04T00:16:23.214Z,100.00
2018-09-04T00:18:52.908Z,100.00
2018-09-04T00:21:22.583Z,100.00
2018-09-04T00:23:52.253Z,100.00
2018-09-04T00:26:22.143Z,100.00
2018-09-04T00:28:51.706Z,100.00
2018-09-04T00:31:21.405Z,100.00
2018-09-04T00:33:51.111Z,100.00
2018-09-04T00:36:21.327Z,100.00
2018-09-04T00:38:51.021Z,100.00
2018-09-04T00:41:20.729Z,100.00
2018-09-04T00:43:50.424Z,100.00
2018-09-04T00:46:20.233Z,100.00
2018-09-04T00:48:49.845Z,100.00
2018-09-04T00:51:19.491Z,100.00
2018-09-04T00:53:49.261Z,100.00
2018-09-04T00:56:19.385Z,100.00
2018-09-04T00:58:48.939Z,100.00
2018-09-04T01:01:18.757Z,99.97
2018-09-04T01:03:48.638Z,99.78
2018-09-04T01:06:19.767Z,100.00
2018-09-04T01:08:49.533Z,100.00
2018-09-04T01:11:18.978Z,100.00
2018-09-04T01:13:48.747Z,99.79
2018-09-04T01:16:18.639Z,99.97
2018-09-04T01:18:48.504Z,99.76
2018-09-04T01:21:18.378Z,99.21
2018-09-04T01:23:48.134Z,99.93
2018-09-04T01:26:18.209Z,100.00
2018-09-04T01:28:48.113Z,100.00
2018-09-04T01:31:18.294Z,100.00
2018-09-04T01:33:49.326Z,100.00
2018-09-04T01:36:18.943Z,100.00
2018-09-04T01:38:48.847Z,100.00
2018-09-04T01:41:19.651Z,99.81
2018-09-04T01:43:49.519Z,99.66
2018-09-04T01:46:19.334Z,100.00
2018-09-04T01:48:50.713Z,99.85
2018-09-04T01:51:20.834Z,99.97
2018-09-04T01:53:51.112Z,100.00
2018-09-04T01:56:21.155Z,100.00
2018-09-04T01:58:50.923Z,99.94
2018-09-04T02:01:20.640Z,100.00
2018-09-04T02:03:50.401Z,100.00
2018-09-04T02:06:20.376Z,100.00
2018-09-04T02:08:50.541Z,100.00
2018-09-04T02:11:20.410Z,99.61
2018-09-04T02:13:50.085Z,99.93
2018-09-04T02:16:20.192Z,100.00
2018-09-04T02:18:50.519Z,100.00
2018-09-04T02:21:20.534Z,100.00
2018-09-04T02:23:50.674Z,99.64
2018-09-04T02:26:20.630Z,100.00
2018-09-04T02:28:50.316Z,100.00
2018-09-04T02:31:21.227Z,100.00
2018-09-04T02:33:50.990Z,100.00
2018-09-04T02:36:21.026Z,100.00
2018-09-04T02:38:51.294Z,100.00
2018-09-04T02:41:20.982Z,100.00
2018-09-04T02:43:50.855Z,100.00
2018-09-04T02:46:20.658Z,100.00
2018-09-04T02:48:50.357Z,100.00
2018-09-04T02:51:20.542Z,100.00
2018-09-04T02:53:50.871Z,100.00
2018-09-04T02:56:20.471Z,100.00
2018-09-04T02:58:50.238Z,100.00
2018-09-04T03:01:19.973Z,100.00
2018-09-04T03:03:49.997Z,100.00
2018-09-04T03:06:19.858Z,100.00
2018-09-04T03:08:49.672Z,100.00
2018-09-04T03:11:19.710Z,100.00
2018-09-04T03:13:49.690Z,100.00
2018-09-04T03:16:19.587Z,100.00
2018-09-04T03:18:49.450Z,100.00
2018-09-04T03:21:20.316Z,100.00
2018-09-04T03:23:50.130Z,100.00
2018-09-04T03:26:19.981Z,100.00
2018-09-04T03:28:49.876Z,100.00
2018-09-04T03:31:20.582Z,100.00
2018-09-04T03:33:51.218Z,100.00
2018-09-04T03:36:20.900Z,100.00
2018-09-04T03:38:50.814Z,100.00
2018-09-04T03:41:20.515Z,100.00
2018-09-04T03:43:50.793Z,100.00
2018-09-04T03:46:20.764Z,100.00
2018-09-04T03:48:51.798Z,100.00
2018-09-04T03:51:21.515Z,100.00
2018-09-04T03:53:51.554Z,100.00
2018-09-04T03:56:21.372Z,100.00
2018-09-04T03:58:51.281Z,100.00
2018-09-04T04:01:21.014Z,100.00
2018-09-04T04:03:51.081Z,100.00
2018-09-04T04:06:20.788Z,100.00
2018-09-04T04:08:50.371Z,100.00
2018-09-04T04:11:20.117Z,100.00
2018-09-04T04:13:49.990Z,100.00
2018-09-04T04:16:19.573Z,100.00
2018-09-04T04:18:49.187Z,100.00
2018-09-04T04:21:19.914Z,100.00
2018-09-04T04:23:49.353Z,100.00
2018-09-04T04:26:19.011Z,100.00
2018-09-04T04:28:48.622Z,100.00
2018-09-04T04:31:18.402Z,100.00
2018-09-04T04:33:48.338Z,100.00
2018-09-04T04:36:18.189Z,100.00
2018-09-04T04:38:47.849Z,100.00
2018-09-04T04:41:17.298Z,100.00
2018-09-04T04:43:46.805Z,100.00
2018-09-04T04:46:16.507Z,100.00
2018-09-04T04:48:46.308Z,100.00
2018-09-04T04:51:15.804Z,100.00
2018-09-04T04:53:46.351Z,100.00
2018-09-04T04:56:16.864Z,100.00
2018-09-04T04:58:46.386Z,100.00
2018-09-04T05:01:16.356Z,100.00
2018-09-04T05:03:46.404Z,100.00
2018-09-04T05:06:16.217Z,100.00
2018-09-04T05:08:46.102Z,100.00
2018-09-04T05:11:15.766Z,100.00
2018-09-04T05:13:45.231Z,100.00
2018-09-04T05:16:14.880Z,100.00
2018-09-04T05:18:44.740Z,100.00
2018-09-04T05:21:15.568Z,100.00
2018-09-04T05:23:45.287Z,100.00
2018-09-04T05:26:14.784Z,100.00
2018-09-04T05:28:44.293Z,100.00
2018-09-04T05:31:13.620Z,100.00
2018-09-04T05:33:44.664Z,100.00
2018-09-04T05:36:15.170Z,100.00
2018-09-04T05:38:44.630Z,100.00
2018-09-04T05:41:15.265Z,100.00
2018-09-04T05:43:52.279Z,100.00
2018-09-04T05:46:28.580Z,100.00
2018-09-04T05:48:59.757Z,100.00
2018-09-04T05:51:29.320Z,100.00
2018-09-04T05:53:59.180Z,100.00
2018-09-04T05:56:28.817Z,100.00
2018-09-04T05:58:58.272Z,100.00
2018-09-04T06:01:28.435Z,100.00
2018-09-04T06:03:58.970Z,100.00
2018-09-04T06:06:28.548Z,100.00
2018-09-04T06:08:58.804Z,100.00
2018-09-04T06:11:28.329Z,100.00
2018-09-04T06:13:57.873Z,99.59
2018-09-04T06:16:27.537Z,98.70
2018-09-04T06:18:56.994Z,98.35
2018-09-04T06:21:26.593Z,98.61
2018-09-04T06:23:56.010Z,98.74
2018-09-04T06:26:27.058Z,98.25
2018-09-04T06:28:56.690Z,98.00
2018-09-04T06:31:26.258Z,97.44
2018-09-04T06:33:57.313Z,96.95
2018-09-04T06:36:26.920Z,97.45
2018-09-04T06:38:56.419Z,96.39
2018-09-04T06:41:26.102Z,97.19
2018-09-04T06:43:55.667Z,95.49
2018-09-04T06:46:25.264Z,93.78
2018-09-04T06:48:54.846Z,93.60
2018-09-04T06:51:24.253Z,92.53
2018-09-04T06:53:53.788Z,92.12
2018-09-04T06:56:24.141Z,89.87
2018-09-04T06:58:53.727Z,90.92
2018-09-04T07:01:23.227Z,90.19
2018-09-04T07:03:53.173Z,90.23
2018-09-04T07:06:23.158Z,88.33
2018-09-04T07:08:53.031Z,88.07
2018-09-04T07:11:23.427Z,88.39
2018-09-04T07:13:53.009Z,86.95
2018-09-04T07:16:22.529Z,87.86
2018-09-04T07:18:52.135Z,86.28
2018-09-04T07:21:21.588Z,85.36
2018-09-04T07:23:51.195Z,85.41
2018-09-04T07:26:20.896Z,85.89
2018-09-04T07:28:50.606Z,85.33
2018-09-04T07:31:20.316Z,84.77
2018-09-04T07:33:50.293Z,84.99
2018-09-04T07:36:19.820Z,83.97
2018-09-04T07:38:49.315Z,84.54
2018-09-04T07:41:19.724Z,85.99
2018-09-04T07:43:49.320Z,85.60
2018-09-04T07:46:19.558Z,84.64
2018-09-04T07:48:49.124Z,85.08
2018-09-04T07:51:18.554Z,83.65
2018-09-04T07:53:48.152Z,80.46
2018-09-04T07:56:17.671Z,80.72
2018-09-04T07:58:47.717Z,80.47
2018-09-04T08:01:17.384Z,80.73
2018-09-04T08:03:46.910Z,81.43
2018-09-04T08:06:16.425Z,79.88
2018-09-04T08:08:46.213Z,80.07
2018-09-04T08:11:16.070Z,79.55
2018-09-04T08:13:45.507Z,80.17
2018-09-04T08:16:14.849Z,79.29
2018-09-04T08:18:44.405Z,78.80
2018-09-04T08:21:13.657Z,78.47
2018-09-04T08:23:42.937Z,76.91
2018-09-04T08:26:12.437Z,77.86
2018-09-04T08:28:41.663Z,76.69
2018-09-04T08:31:11.671Z,76.50
2018-09-04T08:33:41.071Z,76.05
2018-09-04T08:36:10.373Z,76.35
2018-09-04T08:38:45.024Z,75.62
2018-09-04T08:41:14.407Z,73.29
2018-09-04T08:46:11.700Z,71.81
2018-09-04T08:48:40.984Z,71.42
2018-09-04T08:51:10.379Z,72.98
2018-09-04T08:53:39.735Z,73.30
2018-09-04T08:56:09.000Z,72.56
2018-09-04T08:58:38.266Z,73.01
2018-09-04T09:01:08.246Z,72.35
2018-09-04T09:03:39.030Z,72.09
2018-09-04T09:06:08.345Z,70.98
2018-09-04T09:08:37.716Z,70.17
2018-09-04T09:11:07.201Z,70.51
2018-09-04T09:13:37.241Z,70.01
2018-09-04T09:16:07.460Z,67.70
2018-09-04T09:18:36.889Z,66.51
2018-09-04T09:21:06.295Z,65.09
2018-09-04T09:23:36.118Z,62.42
2018-09-04T09:26:05.401Z,59.21
2018-09-04T09:28:34.662Z,59.09
2018-09-04T09:33:56.067Z,57.41
2018-09-04T09:36:25.709Z,57.21
2018-09-04T09:38:55.575Z,56.61
2018-09-04T09:41:25.353Z,57.95
2018-09-04T09:43:55.372Z,59.90
2018-09-04T09:46:24.954Z,61.23
2018-09-04T09:48:55.194Z,62.45
2018-09-04T09:51:24.554Z,64.09
2018-09-04T09:53:54.131Z,64.78
2018-09-04T09:56:24.520Z,63.42
2018-09-04T09:58:53.945Z,62.35
2018-09-04T10:01:28.614Z,60.73
2018-09-04T10:04:01.920Z,61.80
2018-09-04T10:06:32.222Z,61.06
2018-09-04T10:09:01.791Z,61.59
2018-09-04T10:11:31.309Z,60.68
2018-09-04T10:14:03.205Z,62.07
2018-09-04T10:16:33.583Z,62.79
2018-09-04T10:19:03.920Z,61.33
2018-09-04T10:21:33.322Z,62.84
2018-09-04T10:24:02.657Z,60.64
2018-09-04T10:26:32.174Z,56.07
2018-09-04T10:29:01.389Z,55.57
2018-09-04T10:31:30.663Z,53.40
2018-09-04T10:33:59.990Z,53.44
2018-09-04T10:36:30.409Z,55.03
2018-09-04T10:39:04.874Z,54.07
2018-09-04T10:41:34.235Z,53.08
2018-09-04T10:44:03.536Z,51.82
2018-09-04T10:46:32.862Z,50.71
2018-09-04T10:49:02.208Z,49.10
2018-09-04T10:51:31.519Z,51.72
2018-09-04T10:54:00.942Z,47.56
2018-09-04T10:56:30.478Z,46.31
2018-09-04T10:58:59.986Z,45.16
2018-09-04T11:01:30.099Z,48.07
2018-09-04T11:04:00.090Z,51.33
2018-09-04T11:06:29.621Z,53.04
2018-09-04T11:09:00.016Z,51.90
2018-09-04T11:11:29.877Z,53.66
2018-09-04T11:13:59.110Z,53.99
2018-09-04T11:16:28.432Z,52.06
2018-09-04T11:18:58.231Z,50.96
2018-09-04T11:21:27.791Z,50.98
2018-09-04T11:23:57.057Z,50.76
2018-09-04T11:26:27.335Z,49.04
2018-09-04T11:28:59.615Z,49.32
2018-09-04T11:31:28.952Z,47.46
2018-09-04T11:33:58.256Z,47.16
2018-09-04T11:36:28.438Z,46.00
2018-09-04T11:38:58.653Z,46.94
2018-09-04T11:41:28.268Z,48.67
2018-09-04T11:43:57.687Z,47.01
2018-09-04T11:46:27.823Z,47.80
2018-09-04T11:48:57.671Z,49.23
2018-09-04T11:51:27.395Z,49.12
2018-09-04T11:53:56.904Z,47.19
2018-09-04T11:56:26.274Z,47.35
2018-09-04T11:58:55.737Z,47.05
2018-09-04T12:01:28.133Z,47.90
2018-09-04T12:03:57.493Z,47.32
2018-09-04T12:06:27.200Z,48.73
2018-09-04T12:08:56.851Z,48.16
2018-09-04T12:11:26.441Z,46.62
2018-09-04T12:13:56.180Z,47.07
2018-09-04T12:16:25.740Z,45.83
2018-09-04T12:18:55.431Z,46.14
2018-09-04T12:21:25.053Z,46.33
2018-09-04T12:23:55.246Z,44.79
2018-09-04T12:26:24.796Z,46.94
2018-09-04T12:28:56.318Z,45.51
2018-09-04T12:31:26.230Z,45.32
2018-09-04T12:33:55.849Z,46.13
2018-09-04T12:36:25.591Z,47.16
2018-09-04T12:38:55.306Z,48.12
2018-09-04T12:41:25.911Z,47.15
2018-09-04T12:43:55.602Z,45.80
2018-09-04T12:46:29.206Z,46.94
2018-09-04T12:48:58.684Z,46.41
2018-09-04T12:51:28.134Z,46.62
2018-09-04T12:53:57.623Z,45.49
2018-09-04T12:56:27.695Z,44.87
2018-09-04T12:58:57.235Z,45.34
2018-09-04T13:01:27.617Z,46.08
2018-09-04T13:04:02.071Z,45.39
2018-09-04T13:06:31.674Z,45.16
2018-09-04T13:09:01.239Z,46.65
2018-09-04T13:14:23.619Z,43.14
2018-09-04T13:16:53.090Z,42.84
2018-09-04T13:19:22.823Z,45.37
2018-09-04T13:21:52.513Z,45.57
2018-09-04T13:24:22.061Z,45.34
2018-09-04T13:26:51.763Z,45.63
2018-09-04T13:29:21.746Z,46.63
2018-09-04T13:31:51.393Z,47.52
2018-09-04T13:34:21.689Z,47.54
2018-09-04T13:36:51.241Z,44.89
2018-09-04T13:39:21.589Z,48.30
2018-09-04T13:41:52.371Z,48.02
2018-09-04T13:44:23.140Z,46.66
2018-09-04T13:46:52.792Z,47.85
2018-09-04T13:49:22.718Z,47.27
2018-09-04T13:51:52.519Z,47.17
2018-09-04T13:54:22.896Z,49.63
2018-09-04T13:56:52.605Z,49.38
2018-09-04T13:59:22.315Z,48.68
2018-09-04T14:01:52.153Z,46.91
2018-09-04T14:04:21.763Z,45.57
2018-09-04T14:06:51.825Z,45.99
2018-09-04T14:09:21.569Z,46.54
2018-09-04T14:11:51.067Z,47.62
2018-09-04T14:14:20.757Z,46.25
2018-09-04T14:16:50.326Z,47.05
2018-09-04T14:19:19.805Z,44.62
2018-09-04T14:21:49.996Z,46.30
2018-09-04T14:24:19.961Z,50.10
2018-09-04T14:26:49.739Z,53.73
2018-09-04T14:29:53.160Z,52.63
2018-09-04T14:31:51.014Z,53.87
2018-09-04T14:34:20.616Z,54.55
2018-09-04T14:36:50.558Z,59.00
2018-09-04T14:39:20.068Z,58.74
2018-09-04T14:41:49.660Z,56.21
2018-09-04T14:44:19.363Z,56.36
2018-09-04T14:46:49.168Z,60.05
2018-09-04T14:49:18.745Z,62.54
2018-09-04T14:51:48.514Z,61.04
2018-09-04T14:54:18.673Z,65.53
2018-09-04T14:56:48.625Z,68.80
2018-09-04T14:59:18.642Z,69.68
2018-09-04T15:01:49.172Z,67.29
2018-09-04T15:04:18.870Z,68.91
2018-09-04T15:06:48.668Z,68.72
2018-09-04T15:09:18.525Z,69.67
2018-09-04T15:11:48.443Z,69.60
2018-09-04T15:14:18.331Z,70.10
2018-09-04T15:16:47.870Z,70.34
2018-09-04T15:19:17.689Z,69.58
2018-09-04T15:21:49.155Z,70.71
2018-09-04T15:24:19.868Z,69.66
2018-09-04T15:26:49.721Z,70.15
2018-09-04T15:29:20.217Z,70.48
2018-09-04T15:31:49.885Z,72.22
2018-09-04T15:34:20.232Z,72.62
2018-09-04T15:36:50.046Z,73.83
2018-09-04T15:39:20.242Z,74.28
2018-09-04T15:41:52.844Z,76.03
2018-09-04T15:44:25.321Z,76.01
2018-09-04T15:46:56.350Z,74.35
2018-09-04T15:49:32.359Z,73.68
2018-09-04T15:52:08.678Z,73.63
2018-09-04T15:54:38.143Z,73.76
2018-09-04T15:57:07.587Z,74.00
2018-09-04T15:59:38.258Z,73.84
2018-09-04T16:02:07.641Z,75.66
2018-09-04T16:04:37.110Z,76.35
2018-09-04T16:07:06.729Z,76.00
2018-09-04T16:09:36.199Z,74.12
2018-09-04T16:12:05.535Z,70.02
2018-09-04T16:14:36.310Z,69.60
2018-09-04T16:17:05.665Z,69.31
2018-09-04T16:19:35.012Z,70.19
2018-09-04T16:22:06.115Z,68.56
2018-09-04T16:24:36.234Z,69.59
2018-09-04T16:27:05.568Z,69.55
2018-09-04T16:29:38.991Z,70.18
2018-09-04T16:32:10.659Z,69.97
2018-09-04T16:34:41.471Z,70.22
2018-09-04T16:37:11.760Z,71.02
2018-09-04T16:39:42.194Z,71.48
2018-09-04T16:42:12.444Z,71.36
2018-09-04T16:44:42.780Z,71.37
2018-09-04T16:47:13.289Z,71.27
2018-09-04T16:49:42.697Z,71.59
2018-09-04T17:07:40.946Z,72.24
2018-09-04T17:10:13.495Z,72.12
2018-09-04T17:12:51.116Z,72.85
2018-09-04T17:15:56.456Z,72.56
2018-09-04T17:18:30.878Z,73.21
2018-09-04T17:23:59.212Z,73.11
2018-09-04T17:26:29.743Z,72.70
2018-09-04T17:29:18.153Z,72.82
2018-09-04T17:31:50.644Z,72.04
2018-09-04T17:34:30.787Z,71.83
2018-09-04T17:37:05.565Z,72.69
2018-09-04T17:39:36.903Z,72.34
2018-09-04T17:42:09.138Z,72.50
2018-09-04T17:44:41.496Z,72.23
2018-09-04T17:47:16.644Z,72.17
2018-09-04T17:49:48.855Z,71.97
2018-09-04T17:52:20.462Z,73.05
2018-09-04T17:54:50.395Z,72.97
2018-09-04T17:57:21.306Z,72.95
2018-09-04T17:59:51.326Z,72.29
2018-09-04T18:02:21.178Z,73.17
2018-09-04T18:04:52.454Z,72.89
2018-09-04T18:07:22.201Z,72.06
2018-09-04T18:09:52.006Z,72.96
2018-09-04T18:12:22.510Z,72.90
2018-09-04T18:14:53.525Z,72.05
2018-09-04T18:17:23.948Z,72.04
2018-09-04T18:19:53.585Z,72.39
2018-09-04T18:22:23.222Z,72.37
2018-09-04T18:24:53.713Z,72.08
2018-09-04T18:27:24.547Z,72.52
2018-09-04T18:29:54.608Z,72.80
2018-09-04T18:32:24.583Z,72.48
2018-09-04T18:34:54.137Z,72.04
2018-09-04T18:37:25.121Z,72.30
2018-09-04T18:39:55.026Z,72.41
2018-09-04T18:42:24.588Z,72.93
2018-09-04T18:45:10.903Z,72.89
2018-09-04T18:47:50.339Z,72.44
2018-09-04T18:50:21.985Z,73.28
2018-09-04T18:52:53.863Z,72.91
2018-09-04T18:55:26.321Z,74.22
2018-09-04T18:57:59.980Z,73.96
2018-09-04T19:00:33.670Z,73.98
2018-09-04T19:03:05.632Z,75.23
2018-09-04T19:05:37.461Z,75.74
2018-09-04T19:08:09.849Z,75.22
2018-09-04T19:10:46.016Z,75.96
2018-09-04T19:13:21.293Z,76.50
2018-09-04T19:15:52.806Z,76.99
2018-09-04T19:21:39.339Z,77.39
2018-09-04T19:24:27.181Z,78.22
2018-09-04T19:33:10.243Z,79.11
2018-09-04T19:35:53.542Z,79.92
2018-09-04T19:38:41.945Z,79.89
2018-09-04T19:41:16.321Z,80.69
2018-09-04T19:46:29.633Z,80.80
2018-09-04T19:48:59.502Z,81.16
2018-09-04T19:51:29.019Z,81.13
2018-09-04T19:54:00.034Z,81.83
2018-09-04T19:56:29.443Z,81.26
2018-09-04T19:58:59.038Z,82.49
2018-09-04T20:01:28.657Z,83.14
2018-09-04T20:04:02.840Z,83.61
2018-09-04T20:06:32.577Z,83.39
2018-09-04T20:09:01.967Z,84.11
2018-09-04T20:11:31.497Z,84.08
2018-09-04T20:14:01.002Z,85.06
2018-09-04T20:16:30.558Z,84.67
2018-09-04T20:18:59.962Z,85.04
2018-09-04T20:21:29.718Z,85.11
2018-09-04T20:23:59.195Z,85.94
2018-09-04T20:26:29.050Z,86.07
2018-09-04T20:28:58.520Z,85.58
2018-09-04T20:31:28.045Z,85.17
2018-09-04T20:33:57.681Z,85.05
2018-09-04T20:36:27.805Z,85.11
2018-09-04T20:38:57.468Z,85.88
2018-09-04T20:41:28.934Z,84.77
2018-09-04T20:43:58.450Z,85.17
2018-09-04T20:46:28.331Z,85.07
2018-09-04T20:48:58.324Z,84.87
2018-09-04T20:51:27.992Z,85.78
2018-09-04T20:53:57.756Z,85.58
2018-09-04T20:56:27.658Z,85.98
2018-09-04T20:59:09.178Z,85.35
2018-09-04T21:01:50.633Z,85.32
2018-09-04T21:04:31.052Z,85.14
2018-09-04T21:06:59.197Z,85.17
2018-09-04T21:09:38.508Z,84.51
2018-09-04T21:12:08.889Z,84.45
2018-09-04T21:14:38.317Z,85.09
2018-09-04T21:17:07.667Z,86.11
2018-09-04T21:19:38.548Z,85.09
2018-09-04T21:22:08.747Z,84.31
2018-09-04T21:24:38.152Z,85.58
2018-09-04T21:27:07.658Z,85.01
2018-09-04T21:29:38.113Z,85.01
2018-09-04T21:32:07.314Z,85.43
2018-09-04T21:34:37.298Z,85.06
2018-09-04T21:37:07.768Z,85.49
2018-09-04T21:39:37.737Z,85.75
2018-09-04T21:42:07.843Z,86.30
2018-09-04T21:44:37.134Z,85.40
2018-09-04T21:47:06.571Z,85.56
2018-09-04T21:49:36.769Z,86.16
2018-09-04T21:52:06.412Z,86.22
2018-09-04T21:54:36.185Z,86.84
2018-09-04T21:57:06.409Z,85.34
2018-09-04T21:59:36.334Z,85.47
2018-09-04T22:02:05.783Z,86.21
2018-09-04T22:04:36.024Z,86.55
2018-09-04T22:07:06.026Z,86.49
2018-09-04T22:09:38.447Z,86.47
2018-09-04T22:12:09.774Z,85.87
2018-09-04T22:14:40.805Z,87.27
2018-09-04T22:17:10.149Z,87.36
2018-09-04T22:19:41.654Z,86.99
2018-09-04T22:22:12.037Z,86.33
2018-09-04T22:24:41.454Z,86.20
2018-09-04T22:27:11.078Z,86.92
2018-09-04T22:29:42.640Z,87.56
2018-09-04T22:32:13.216Z,87.04
2018-09-04T22:34:42.976Z,86.71
2018-09-04T22:37:12.638Z,86.80
2018-09-04T22:39:43.574Z,86.98
2018-09-04T22:42:13.722Z,87.23
2018-09-04T22:44:43.049Z,88.34
2018-09-04T22:47:13.204Z,88.65
2018-09-04T22:49:48.252Z,90.18
2018-09-04T22:52:19.145Z,90.07
2018-09-04T22:54:50.438Z,90.25
2018-09-04T22:57:20.746Z,90.49
2018-09-04T22:59:50.446Z,90.34
2018-09-04T23:02:20.193Z,90.68
2018-09-04T23:04:50.168Z,90.95
2018-09-04T23:07:19.848Z,91.35
2018-09-04T23:09:49.927Z,92.20
2018-09-04T23:12:19.853Z,91.83
2018-09-04T23:14:49.658Z,91.00
2018-09-04T23:17:19.750Z,90.95
2018-09-04T23:19:49.553Z,90.62
2018-09-04T23:22:19.429Z,91.11
2018-09-04T23:24:49.007Z,91.22
2018-09-04T23:27:19.416Z,92.02
2018-09-04T23:29:50.582Z,91.87
2018-09-04T23:32:21.582Z,92.57
2018-09-04T23:34:51.228Z,93.29
2018-09-04T23:37:21.092Z,93.02
2018-09-04T23:39:50.895Z,94.30
2018-09-04T23:42:22.119Z,93.90
2018-09-04T23:44:52.147Z,94.33
2018-09-04T23:47:21.736Z,94.18
2018-09-04T23:49:52.973Z,94.80
2018-09-04T23:52:23.024Z,95.04
2018-09-04T23:54:52.774Z,95.60
2018-09-04T23:57:23.449Z,94.78
